sensor_id;sensor_type;location;lat;lon;timestamp;P1;durP1;ratioP1;P2;durP2;ratioP2
7989;SDS011;4040;42.848;23.034;2023-02-05T00:01:29;4.83;;;3.70;;
7989;SDS011;4040;42.848;23.034;2023-02-05T00:03:57;10.90;;;4.20;;
7989;SDS011;4040;42.848;23.034;2023-02-05T00:06:24;6.87;;;4.00;;
7989;SDS011;4040;42.848;23.034;2023-02-05T00:08:51;4.17;;;2.73;;
7989;SDS011;4040;42.848;23.034;2023-02-05T00:11:20;4.23;;;2.70;;
7989;SDS011;4040;42.848;23.034;2023-02-05T00:13:47;3.43;;;2.73;;
7989;SDS011;4040;42.848;23.034;2023-02-05T00:16:16;4.17;;;2.93;;
7989;SDS011;4040;42.848;23.034;2023-02-05T00:18:44;5.43;;;3.70;;
7989;SDS011;4040;42.848;23.034;2023-02-05T00:21:12;3.70;;;2.70;;
7989;SDS011;4040;42.848;23.034;2023-02-05T00:23:40;3.70;;;2.60;;
7989;SDS011;4040;42.848;23.034;2023-02-05T00:26:07;6.47;;;3.53;;
7989;SDS011;4040;42.848;23.034;2023-02-05T00:28:39;4.43;;;3.03;;
7989;SDS011;4040;42.848;23.034;2023-02-05T00:31:07;8.07;;;3.90;;
7989;SDS011;4040;42.848;23.034;2023-02-05T00:33:36;2.60;;;2.37;;
7989;SDS011;4040;42.848;23.034;2023-02-05T00:36:03;4.23;;;3.13;;
7989;SDS011;4040;42.848;23.034;2023-02-05T00:38:31;3.77;;;2.87;;
7989;SDS011;4040;42.848;23.034;2023-02-05T00:40:59;7.20;;;4.10;;
7989;SDS011;4040;42.848;23.034;2023-02-05T00:43:26;5.97;;;3.87;;
7989;SDS011;4040;42.848;23.034;2023-02-05T00:45:56;6.53;;;3.47;;
7989;SDS011;4040;42.848;23.034;2023-02-05T00:48:23;4.03;;;2.77;;
7989;SDS011;4040;42.848;23.034;2023-02-05T00:50:51;4.10;;;3.17;;
7989;SDS011;4040;42.848;23.034;2023-02-05T00:53:19;4.27;;;3.13;;
7989;SDS011;4040;42.848;23.034;2023-02-05T00:55:47;7.07;;;3.23;;
7989;SDS011;4040;42.848;23.034;2023-02-05T00:58:14;8.47;;;3.60;;
7989;SDS011;4040;42.848;23.034;2023-02-05T01:00:42;6.80;;;3.17;;
7989;SDS011;4040;42.848;23.034;2023-02-05T01:03:11;12.00;;;3.20;;
7989;SDS011;4040;42.848;23.034;2023-02-05T01:05:39;6.73;;;2.80;;
7989;SDS011;4040;42.848;23.034;2023-02-05T01:08:07;4.50;;;3.17;;
7989;SDS011;4040;42.848;23.034;2023-02-05T01:10:36;4.60;;;3.43;;
7989;SDS011;4040;42.848;23.034;2023-02-05T01:13:03;4.73;;;3.53;;
7989;SDS011;4040;42.848;23.034;2023-02-05T01:15:32;5.67;;;2.57;;
7989;SDS011;4040;42.848;23.034;2023-02-05T01:17:59;4.23;;;2.80;;
7989;SDS011;4040;42.848;23.034;2023-02-05T01:20:28;2.87;;;2.67;;
7989;SDS011;4040;42.848;23.034;2023-02-05T01:22:55;4.87;;;2.63;;
7989;SDS011;4040;42.848;23.034;2023-02-05T01:25:23;3.93;;;2.83;;
7989;SDS011;4040;42.848;23.034;2023-02-05T01:27:50;5.60;;;3.60;;
7989;SDS011;4040;42.848;23.034;2023-02-05T01:30:17;5.20;;;3.47;;
7989;SDS011;4040;42.848;23.034;2023-02-05T01:32:45;5.77;;;3.03;;
7989;SDS011;4040;42.848;23.034;2023-02-05T01:35:12;5.57;;;3.00;;
7989;SDS011;4040;42.848;23.034;2023-02-05T01:37:41;5.83;;;3.43;;
7989;SDS011;4040;42.848;23.034;2023-02-05T01:40:09;5.97;;;3.70;;
7989;SDS011;4040;42.848;23.034;2023-02-05T01:42:39;3.97;;;2.50;;
7989;SDS011;4040;42.848;23.034;2023-02-05T01:48:08;2.10;;;1.70;;
7989;SDS011;4040;42.848;23.034;2023-02-05T01:50:37;4.93;;;3.63;;
7989;SDS011;4040;42.848;23.034;2023-02-05T01:53:10;5.93;;;3.77;;
7989;SDS011;4040;42.848;23.034;2023-02-05T01:55:42;4.17;;;3.17;;
7989;SDS011;4040;42.848;23.034;2023-02-05T01:58:13;8.80;;;4.17;;
7989;SDS011;4040;42.848;23.034;2023-02-05T02:00:40;10.73;;;4.63;;
7989;SDS011;4040;42.848;23.034;2023-02-05T02:03:09;9.50;;;4.07;;
7989;SDS011;4040;42.848;23.034;2023-02-05T02:05:39;4.53;;;3.30;;
7989;SDS011;4040;42.848;23.034;2023-02-05T02:08:09;6.00;;;3.43;;
7989;SDS011;4040;42.848;23.034;2023-02-05T02:10:38;6.13;;;3.20;;
7989;SDS011;4040;42.848;23.034;2023-02-05T02:13:09;6.63;;;3.83;;
7989;SDS011;4040;42.848;23.034;2023-02-05T02:15:38;5.23;;;2.80;;
7989;SDS011;4040;42.848;23.034;2023-02-05T02:18:06;7.93;;;3.73;;
7989;SDS011;4040;42.848;23.034;2023-02-05T02:21:00;3.73;;;2.27;;
7989;SDS011;4040;42.848;23.034;2023-02-05T02:23:51;3.27;;;2.90;;
7989;SDS011;4040;42.848;23.034;2023-02-05T02:26:31;8.57;;;3.80;;
7989;SDS011;4040;42.848;23.034;2023-02-05T02:29:16;4.00;;;2.83;;
7989;SDS011;4040;42.848;23.034;2023-02-05T02:31:50;5.60;;;2.70;;
7989;SDS011;4040;42.848;23.034;2023-02-05T02:34:24;6.37;;;3.60;;
7989;SDS011;4040;42.848;23.034;2023-02-05T02:37:00;5.07;;;3.20;;
7989;SDS011;4040;42.848;23.034;2023-02-05T02:39:35;6.90;;;3.90;;
7989;SDS011;4040;42.848;23.034;2023-02-05T02:42:07;6.10;;;3.23;;
7989;SDS011;4040;42.848;23.034;2023-02-05T02:44:42;3.50;;;2.80;;
7989;SDS011;4040;42.848;23.034;2023-02-05T02:47:15;3.73;;;2.57;;
7989;SDS011;4040;42.848;23.034;2023-02-05T02:49:46;3.17;;;2.50;;
7989;SDS011;4040;42.848;23.034;2023-02-05T02:52:17;4.33;;;2.63;;
7989;SDS011;4040;42.848;23.034;2023-02-05T02:54:47;3.27;;;2.30;;
7989;SDS011;4040;42.848;23.034;2023-02-05T02:57:18;4.30;;;2.27;;
7989;SDS011;4040;42.848;23.034;2023-02-05T02:59:51;2.27;;;2.10;;
7989;SDS011;4040;42.848;23.034;2023-02-05T03:02:21;4.50;;;2.70;;
7989;SDS011;4040;42.848;23.034;2023-02-05T03:04:50;3.83;;;2.40;;
7989;SDS011;4040;42.848;23.034;2023-02-05T03:07:21;2.10;;;1.97;;
7989;SDS011;4040;42.848;23.034;2023-02-05T03:09:55;8.97;;;2.30;;
7989;SDS011;4040;42.848;23.034;2023-02-05T03:12:27;4.73;;;2.47;;
7989;SDS011;4040;42.848;23.034;2023-02-05T03:14:56;3.63;;;3.10;;
7989;SDS011;4040;42.848;23.034;2023-02-05T03:17:24;5.20;;;3.30;;
7989;SDS011;4040;42.848;23.034;2023-02-05T03:19:54;8.53;;;3.20;;
7989;SDS011;4040;42.848;23.034;2023-02-05T03:22:27;5.63;;;3.07;;
7989;SDS011;4040;42.848;23.034;2023-02-05T03:24:54;4.80;;;3.37;;
7989;SDS011;4040;42.848;23.034;2023-02-05T03:27:22;2.67;;;2.07;;
7989;SDS011;4040;42.848;23.034;2023-02-05T03:29:49;2.00;;;1.80;;
7989;SDS011;4040;42.848;23.034;2023-02-05T03:32:22;7.47;;;3.03;;
7989;SDS011;4040;42.848;23.034;2023-02-05T03:35:07;2.50;;;2.30;;
7989;SDS011;4040;42.848;23.034;2023-02-05T03:37:44;2.73;;;2.50;;
7989;SDS011;4040;42.848;23.034;2023-02-05T03:40:27;3.53;;;2.77;;
7989;SDS011;4040;42.848;23.034;2023-02-05T03:43:05;3.40;;;2.47;;
7989;SDS011;4040;42.848;23.034;2023-02-05T03:45:42;2.80;;;2.50;;
7989;SDS011;4040;42.848;23.034;2023-02-05T03:48:22;2.57;;;2.33;;
7989;SDS011;4040;42.848;23.034;2023-02-05T03:51:02;3.33;;;2.20;;
7989;SDS011;4040;42.848;23.034;2023-02-05T03:53:43;3.90;;;2.97;;
7989;SDS011;4040;42.848;23.034;2023-02-05T03:56:21;3.03;;;2.57;;
7989;SDS011;4040;42.848;23.034;2023-02-05T03:58:53;3.80;;;2.53;;
7989;SDS011;4040;42.848;23.034;2023-02-05T04:01:23;4.10;;;2.77;;
7989;SDS011;4040;42.848;23.034;2023-02-05T04:03:52;6.60;;;3.60;;
7989;SDS011;4040;42.848;23.034;2023-02-05T04:06:19;3.50;;;2.80;;
7989;SDS011;4040;42.848;23.034;2023-02-05T04:08:47;6.00;;;3.07;;
7989;SDS011;4040;42.848;23.034;2023-02-05T04:11:14;4.67;;;2.63;;
7989;SDS011;4040;42.848;23.034;2023-02-05T04:13:41;4.33;;;3.43;;
7989;SDS011;4040;42.848;23.034;2023-02-05T04:16:09;7.33;;;4.07;;
7989;SDS011;4040;42.848;23.034;2023-02-05T04:18:36;4.60;;;2.77;;
7989;SDS011;4040;42.848;23.034;2023-02-05T04:21:05;5.00;;;3.00;;
7989;SDS011;4040;42.848;23.034;2023-02-05T04:23:32;5.07;;;2.70;;
7989;SDS011;4040;42.848;23.034;2023-02-05T04:25:59;3.30;;;2.97;;
7989;SDS011;4040;42.848;23.034;2023-02-05T04:28:27;4.07;;;3.10;;
7989;SDS011;4040;42.848;23.034;2023-02-05T04:30:54;8.97;;;5.27;;
7989;SDS011;4040;42.848;23.034;2023-02-05T04:33:21;10.37;;;4.27;;
7989;SDS011;4040;42.848;23.034;2023-02-05T04:35:49;4.67;;;3.20;;
7989;SDS011;4040;42.848;23.034;2023-02-05T04:38:18;5.63;;;3.60;;
7989;SDS011;4040;42.848;23.034;2023-02-05T04:40:45;8.97;;;4.17;;
7989;SDS011;4040;42.848;23.034;2023-02-05T04:43:12;6.30;;;4.07;;
7989;SDS011;4040;42.848;23.034;2023-02-05T04:45:39;8.17;;;5.27;;
7989;SDS011;4040;42.848;23.034;2023-02-05T04:48:07;5.53;;;3.73;;
7989;SDS011;4040;42.848;23.034;2023-02-05T04:50:34;9.10;;;4.57;;
7989;SDS011;4040;42.848;23.034;2023-02-05T04:53:03;14.27;;;6.80;;
7989;SDS011;4040;42.848;23.034;2023-02-05T04:55:32;11.07;;;5.53;;
7989;SDS011;4040;42.848;23.034;2023-02-05T04:57:59;10.10;;;4.40;;
7989;SDS011;4040;42.848;23.034;2023-02-05T05:00:27;9.50;;;4.83;;
7989;SDS011;4040;42.848;23.034;2023-02-05T05:02:54;9.20;;;4.33;;
7989;SDS011;4040;42.848;23.034;2023-02-05T05:05:22;7.90;;;4.10;;
7989;SDS011;4040;42.848;23.034;2023-02-05T05:07:49;8.63;;;4.47;;
7989;SDS011;4040;42.848;23.034;2023-02-05T05:10:17;6.33;;;3.07;;
7989;SDS011;4040;42.848;23.034;2023-02-05T05:12:46;11.30;;;4.43;;
7989;SDS011;4040;42.848;23.034;2023-02-05T05:15:13;6.03;;;3.77;;
7989;SDS011;4040;42.848;23.034;2023-02-05T05:17:40;6.43;;;3.60;;
7989;SDS011;4040;42.848;23.034;2023-02-05T05:20:08;4.07;;;3.13;;
7989;SDS011;4040;42.848;23.034;2023-02-05T05:22:36;6.40;;;3.63;;
7989;SDS011;4040;42.848;23.034;2023-02-05T05:25:03;5.10;;;2.63;;
7989;SDS011;4040;42.848;23.034;2023-02-05T05:27:31;6.00;;;3.87;;
7989;SDS011;4040;42.848;23.034;2023-02-05T05:30:00;7.27;;;3.53;;
7989;SDS011;4040;42.848;23.034;2023-02-05T05:32:27;7.57;;;2.70;;
7989;SDS011;4040;42.848;23.034;2023-02-05T05:34:55;9.10;;;4.27;;
7989;SDS011;4040;42.848;23.034;2023-02-05T05:37:22;7.90;;;4.10;;
7989;SDS011;4040;42.848;23.034;2023-02-05T05:39:50;6.07;;;3.07;;
7989;SDS011;4040;42.848;23.034;2023-02-05T05:42:34;8.07;;;4.47;;
7989;SDS011;4040;42.848;23.034;2023-02-05T05:45:22;5.23;;;3.70;;
7989;SDS011;4040;42.848;23.034;2023-02-05T05:47:49;5.90;;;2.97;;
7989;SDS011;4040;42.848;23.034;2023-02-05T05:50:17;5.37;;;3.03;;
7989;SDS011;4040;42.848;23.034;2023-02-05T05:52:44;6.27;;;3.30;;
7989;SDS011;4040;42.848;23.034;2023-02-05T05:55:12;6.20;;;4.13;;
7989;SDS011;4040;42.848;23.034;2023-02-05T05:57:39;3.20;;;2.53;;
7989;SDS011;4040;42.848;23.034;2023-02-05T06:00:07;5.23;;;3.50;;
7989;SDS011;4040;42.848;23.034;2023-02-05T06:02:39;6.20;;;3.67;;
7989;SDS011;4040;42.848;23.034;2023-02-05T06:05:09;8.43;;;4.40;;
7989;SDS011;4040;42.848;23.034;2023-02-05T06:07:36;6.00;;;3.40;;
7989;SDS011;4040;42.848;23.034;2023-02-05T06:10:03;6.13;;;3.23;;
7989;SDS011;4040;42.848;23.034;2023-02-05T06:12:31;8.67;;;4.57;;
7989;SDS011;4040;42.848;23.034;2023-02-05T06:14:58;7.60;;;4.13;;
7989;SDS011;4040;42.848;23.034;2023-02-05T06:17:26;4.93;;;3.73;;
7989;SDS011;4040;42.848;23.034;2023-02-05T06:19:55;5.70;;;3.40;;
7989;SDS011;4040;42.848;23.034;2023-02-05T06:22:22;14.27;;;5.67;;
7989;SDS011;4040;42.848;23.034;2023-02-05T06:24:49;8.07;;;5.07;;
7989;SDS011;4040;42.848;23.034;2023-02-05T06:27:16;3.17;;;2.47;;
7989;SDS011;4040;42.848;23.034;2023-02-05T06:29:44;5.97;;;3.17;;
7989;SDS011;4040;42.848;23.034;2023-02-05T06:32:11;6.30;;;3.43;;
7989;SDS011;4040;42.848;23.034;2023-02-05T06:34:39;6.67;;;3.97;;
7989;SDS011;4040;42.848;23.034;2023-02-05T06:37:07;6.07;;;4.03;;
7989;SDS011;4040;42.848;23.034;2023-02-05T06:39:34;7.97;;;4.03;;
7989;SDS011;4040;42.848;23.034;2023-02-05T06:42:02;12.27;;;3.63;;
7989;SDS011;4040;42.848;23.034;2023-02-05T06:44:29;2.87;;;2.20;;
7989;SDS011;4040;42.848;23.034;2023-02-05T06:46:57;3.00;;;2.80;;
7989;SDS011;4040;42.848;23.034;2023-02-05T06:49:24;17.13;;;5.10;;
7989;SDS011;4040;42.848;23.034;2023-02-05T06:51:52;18.37;;;7.63;;
7989;SDS011;4040;42.848;23.034;2023-02-05T06:54:20;5.77;;;3.97;;
7989;SDS011;4040;42.848;23.034;2023-02-05T06:56:48;11.80;;;5.07;;
7989;SDS011;4040;42.848;23.034;2023-02-05T06:59:15;5.90;;;3.93;;
7989;SDS011;4040;42.848;23.034;2023-02-05T07:01:43;6.83;;;4.50;;
7989;SDS011;4040;42.848;23.034;2023-02-05T07:04:10;7.93;;;3.50;;
7989;SDS011;4040;42.848;23.034;2023-02-05T07:06:37;7.67;;;4.30;;
7989;SDS011;4040;42.848;23.034;2023-02-05T07:09:05;7.43;;;4.60;;
7989;SDS011;4040;42.848;23.034;2023-02-05T07:11:34;8.30;;;4.17;;
7989;SDS011;4040;42.848;23.034;2023-02-05T07:14:01;10.57;;;5.10;;
7989;SDS011;4040;42.848;23.034;2023-02-05T07:16:29;5.87;;;3.50;;
7989;SDS011;4040;42.848;23.034;2023-02-05T07:18:56;11.50;;;4.37;;
7989;SDS011;4040;42.848;23.034;2023-02-05T07:21:24;4.63;;;3.20;;
7989;SDS011;4040;42.848;23.034;2023-02-05T07:23:51;3.83;;;2.57;;
7989;SDS011;4040;42.848;23.034;2023-02-05T07:26:18;8.70;;;4.30;;
7989;SDS011;4040;42.848;23.034;2023-02-05T07:28:47;5.73;;;3.43;;
7989;SDS011;4040;42.848;23.034;2023-02-05T07:31:15;7.50;;;3.70;;
7989;SDS011;4040;42.848;23.034;2023-02-05T07:33:44;4.17;;;3.27;;
7989;SDS011;4040;42.848;23.034;2023-02-05T07:36:13;8.70;;;4.60;;
7989;SDS011;4040;42.848;23.034;2023-02-05T07:38:42;7.37;;;4.20;;
7989;SDS011;4040;42.848;23.034;2023-02-05T07:41:11;6.47;;;4.30;;
7989;SDS011;4040;42.848;23.034;2023-02-05T07:43:40;6.90;;;5.00;;
7989;SDS011;4040;42.848;23.034;2023-02-05T07:46:09;7.77;;;3.47;;
7989;SDS011;4040;42.848;23.034;2023-02-05T07:48:38;7.20;;;4.50;;
7989;SDS011;4040;42.848;23.034;2023-02-05T07:51:05;10.57;;;5.03;;
7989;SDS011;4040;42.848;23.034;2023-02-05T07:53:33;12.67;;;6.10;;
7989;SDS011;4040;42.848;23.034;2023-02-05T07:56:01;8.20;;;4.30;;
7989;SDS011;4040;42.848;23.034;2023-02-05T07:58:29;4.53;;;3.67;;
7989;SDS011;4040;42.848;23.034;2023-02-05T08:00:58;14.57;;;6.67;;
7989;SDS011;4040;42.848;23.034;2023-02-05T08:03:27;5.23;;;3.73;;
7989;SDS011;4040;42.848;23.034;2023-02-05T08:05:55;11.00;;;4.77;;
7989;SDS011;4040;42.848;23.034;2023-02-05T08:08:23;8.87;;;5.03;;
7989;SDS011;4040;42.848;23.034;2023-02-05T08:10:54;16.27;;;8.10;;
7989;SDS011;4040;42.848;23.034;2023-02-05T08:13:22;17.53;;;6.40;;
7989;SDS011;4040;42.848;23.034;2023-02-05T08:15:50;19.53;;;8.17;;
7989;SDS011;4040;42.848;23.034;2023-02-05T08:18:17;25.63;;;12.70;;
7989;SDS011;4040;42.848;23.034;2023-02-05T08:20:46;7.37;;;4.87;;
7989;SDS011;4040;42.848;23.034;2023-02-05T08:23:17;12.67;;;6.50;;
7989;SDS011;4040;42.848;23.034;2023-02-05T08:25:44;12.20;;;5.60;;
7989;SDS011;4040;42.848;23.034;2023-02-05T08:28:11;11.47;;;4.97;;
7989;SDS011;4040;42.848;23.034;2023-02-05T08:30:39;7.13;;;4.60;;
7989;SDS011;4040;42.848;23.034;2023-02-05T08:33:07;13.90;;;7.03;;
7989;SDS011;4040;42.848;23.034;2023-02-05T08:35:35;10.27;;;5.43;;
7989;SDS011;4040;42.848;23.034;2023-02-05T08:38:04;6.97;;;4.00;;
7989;SDS011;4040;42.848;23.034;2023-02-05T08:40:31;13.63;;;4.30;;
7989;SDS011;4040;42.848;23.034;2023-02-05T08:42:58;10.83;;;5.03;;
7989;SDS011;4040;42.848;23.034;2023-02-05T08:45:27;10.37;;;4.40;;
7989;SDS011;4040;42.848;23.034;2023-02-05T08:47:55;4.87;;;3.73;;
7989;SDS011;4040;42.848;23.034;2023-02-05T08:50:22;9.10;;;4.93;;
7989;SDS011;4040;42.848;23.034;2023-02-05T08:52:50;3.20;;;2.90;;
7989;SDS011;4040;42.848;23.034;2023-02-05T08:55:19;6.10;;;3.90;;
7989;SDS011;4040;42.848;23.034;2023-02-05T08:57:46;4.37;;;3.43;;
7989;SDS011;4040;42.848;23.034;2023-02-05T09:00:14;11.20;;;5.83;;
7989;SDS011;4040;42.848;23.034;2023-02-05T09:02:42;19.07;;;7.87;;
7989;SDS011;4040;42.848;23.034;2023-02-05T09:05:09;9.80;;;4.57;;
7989;SDS011;4040;42.848;23.034;2023-02-05T09:07:37;39.17;;;12.37;;
7989;SDS011;4040;42.848;23.034;2023-02-05T09:10:05;17.40;;;6.23;;
7989;SDS011;4040;42.848;23.034;2023-02-05T09:12:35;23.93;;;10.30;;
7989;SDS011;4040;42.848;23.034;2023-02-05T09:15:02;17.60;;;7.20;;
7989;SDS011;4040;42.848;23.034;2023-02-05T09:17:30;3.80;;;3.27;;
7989;SDS011;4040;42.848;23.034;2023-02-05T09:19:57;10.97;;;4.07;;
7989;SDS011;4040;42.848;23.034;2023-02-05T09:22:25;12.63;;;4.63;;
7989;SDS011;4040;42.848;23.034;2023-02-05T09:24:52;3.60;;;2.73;;
7989;SDS011;4040;42.848;23.034;2023-02-05T09:27:19;6.43;;;3.27;;
7989;SDS011;4040;42.848;23.034;2023-02-05T09:29:48;6.80;;;3.17;;
7989;SDS011;4040;42.848;23.034;2023-02-05T09:32:15;11.07;;;4.27;;
7989;SDS011;4040;42.848;23.034;2023-02-05T09:34:43;7.03;;;4.50;;
7989;SDS011;4040;42.848;23.034;2023-02-05T09:37:10;6.50;;;3.47;;
7989;SDS011;4040;42.848;23.034;2023-02-05T09:39:37;9.23;;;4.00;;
7989;SDS011;4040;42.848;23.034;2023-02-05T09:42:08;10.00;;;5.07;;
7989;SDS011;4040;42.848;23.034;2023-02-05T09:44:51;10.57;;;5.57;;
7989;SDS011;4040;42.848;23.034;2023-02-05T09:47:29;12.83;;;5.73;;
7989;SDS011;4040;42.848;23.034;2023-02-05T09:50:05;9.90;;;4.53;;
7989;SDS011;4040;42.848;23.034;2023-02-05T09:52:40;13.10;;;6.67;;
7989;SDS011;4040;42.848;23.034;2023-02-05T09:55:13;9.10;;;5.33;;
7989;SDS011;4040;42.848;23.034;2023-02-05T09:57:46;6.17;;;4.47;;
7989;SDS011;4040;42.848;23.034;2023-02-05T10:00:17;16.30;;;5.83;;
7989;SDS011;4040;42.848;23.034;2023-02-05T10:02:50;11.63;;;5.47;;
7989;SDS011;4040;42.848;23.034;2023-02-05T10:05:24;10.50;;;5.57;;
7989;SDS011;4040;42.848;23.034;2023-02-05T10:07:57;10.10;;;5.03;;
7989;SDS011;4040;42.848;23.034;2023-02-05T10:10:33;13.77;;;6.80;;
7989;SDS011;4040;42.848;23.034;2023-02-05T10:13:17;3.37;;;2.57;;
7989;SDS011;4040;42.848;23.034;2023-02-05T10:16:09;11.57;;;4.83;;
7989;SDS011;4040;42.848;23.034;2023-02-05T10:19:03;14.70;;;7.20;;
7989;SDS011;4040;42.848;23.034;2023-02-05T10:21:59;10.93;;;5.73;;
7989;SDS011;4040;42.848;23.034;2023-02-05T10:24:49;7.07;;;3.90;;
7989;SDS011;4040;42.848;23.034;2023-02-05T10:27:32;5.13;;;4.27;;
7989;SDS011;4040;42.848;23.034;2023-02-05T10:30:11;5.27;;;3.87;;
7989;SDS011;4040;42.848;23.034;2023-02-05T10:32:49;5.73;;;3.47;;
7989;SDS011;4040;42.848;23.034;2023-02-05T10:35:23;7.87;;;4.73;;
7989;SDS011;4040;42.848;23.034;2023-02-05T10:37:56;6.60;;;4.27;;
7989;SDS011;4040;42.848;23.034;2023-02-05T10:40:26;13.20;;;5.67;;
7989;SDS011;4040;42.848;23.034;2023-02-05T10:42:59;9.20;;;4.90;;
7989;SDS011;4040;42.848;23.034;2023-02-05T10:45:29;8.13;;;4.80;;
7989;SDS011;4040;42.848;23.034;2023-02-05T10:48:01;6.27;;;3.70;;
7989;SDS011;4040;42.848;23.034;2023-02-05T10:50:48;7.57;;;4.50;;
7989;SDS011;4040;42.848;23.034;2023-02-05T10:53:21;5.03;;;3.20;;
7989;SDS011;4040;42.848;23.034;2023-02-05T10:55:50;5.27;;;3.63;;
7989;SDS011;4040;42.848;23.034;2023-02-05T10:58:34;6.47;;;3.70;;
7989;SDS011;4040;42.848;23.034;2023-02-05T11:01:05;6.27;;;3.77;;
7989;SDS011;4040;42.848;23.034;2023-02-05T11:03:35;5.63;;;3.47;;
7989;SDS011;4040;42.848;23.034;2023-02-05T11:06:06;11.50;;;4.53;;
7989;SDS011;4040;42.848;23.034;2023-02-05T11:08:36;5.90;;;3.40;;
7989;SDS011;4040;42.848;23.034;2023-02-05T11:11:06;9.17;;;4.93;;
7989;SDS011;4040;42.848;23.034;2023-02-05T11:13:47;8.57;;;4.63;;
7989;SDS011;4040;42.848;23.034;2023-02-05T11:16:18;9.90;;;5.87;;
7989;SDS011;4040;42.848;23.034;2023-02-05T11:18:54;6.67;;;3.40;;
7989;SDS011;4040;42.848;23.034;2023-02-05T11:21:23;9.07;;;3.13;;
7989;SDS011;4040;42.848;23.034;2023-02-05T11:24:19;3.83;;;3.00;;
7989;SDS011;4040;42.848;23.034;2023-02-05T11:26:49;6.33;;;3.20;;
7989;SDS011;4040;42.848;23.034;2023-02-05T11:30:17;2.67;;;2.33;;
7989;SDS011;4040;42.848;23.034;2023-02-05T11:32:51;10.30;;;4.10;;
7989;SDS011;4040;42.848;23.034;2023-02-05T11:35:21;6.90;;;4.33;;
7989;SDS011;4040;42.848;23.034;2023-02-05T11:37:54;8.33;;;3.73;;
7989;SDS011;4040;42.848;23.034;2023-02-05T11:40:27;8.80;;;5.20;;
7989;SDS011;4040;42.848;23.034;2023-02-05T11:43:03;13.33;;;6.40;;
7989;SDS011;4040;42.848;23.034;2023-02-05T11:45:33;7.73;;;4.87;;
7989;SDS011;4040;42.848;23.034;2023-02-05T11:48:04;7.20;;;3.67;;
7989;SDS011;4040;42.848;23.034;2023-02-05T11:50:48;5.77;;;3.70;;
7989;SDS011;4040;42.848;23.034;2023-02-05T11:53:15;6.90;;;4.77;;
7989;SDS011;4040;42.848;23.034;2023-02-05T11:55:44;8.63;;;6.10;;
7989;SDS011;4040;42.848;23.034;2023-02-05T11:58:20;9.77;;;5.97;;
7989;SDS011;4040;42.848;23.034;2023-02-05T12:00:49;3.93;;;2.97;;
7989;SDS011;4040;42.848;23.034;2023-02-05T12:03:18;3.60;;;3.30;;
7989;SDS011;4040;42.848;23.034;2023-02-05T12:05:48;7.47;;;4.13;;
7989;SDS011;4040;42.848;23.034;2023-02-05T12:08:24;4.87;;;3.37;;
7989;SDS011;4040;42.848;23.034;2023-02-05T12:10:58;6.10;;;3.30;;
7989;SDS011;4040;42.848;23.034;2023-02-05T12:13:39;6.90;;;4.43;;
7989;SDS011;4040;42.848;23.034;2023-02-05T12:16:17;9.37;;;5.23;;
7989;SDS011;4040;42.848;23.034;2023-02-05T12:18:56;6.30;;;3.73;;
7989;SDS011;4040;42.848;23.034;2023-02-05T12:21:32;15.67;;;5.67;;
7989;SDS011;4040;42.848;23.034;2023-02-05T12:24:10;12.00;;;5.47;;
7989;SDS011;4040;42.848;23.034;2023-02-05T12:26:50;11.47;;;6.23;;
7989;SDS011;4040;42.848;23.034;2023-02-05T12:29:35;18.20;;;7.37;;
7989;SDS011;4040;42.848;23.034;2023-02-05T12:32:13;14.20;;;7.27;;
7989;SDS011;4040;42.848;23.034;2023-02-05T12:34:57;10.53;;;5.33;;
7989;SDS011;4040;42.848;23.034;2023-02-05T12:37:40;17.40;;;8.70;;
7989;SDS011;4040;42.848;23.034;2023-02-05T12:40:20;8.60;;;5.07;;
7989;SDS011;4040;42.848;23.034;2023-02-05T12:43:00;15.77;;;7.17;;
7989;SDS011;4040;42.848;23.034;2023-02-05T12:45:36;22.57;;;9.23;;
7989;SDS011;4040;42.848;23.034;2023-02-05T12:48:13;13.77;;;7.03;;
7989;SDS011;4040;42.848;23.034;2023-02-05T12:51:04;27.93;;;9.70;;
7989;SDS011;4040;42.848;23.034;2023-02-05T12:53:50;13.03;;;7.43;;
7989;SDS011;4040;42.848;23.034;2023-02-05T12:56:30;14.20;;;7.30;;
7989;SDS011;4040;42.848;23.034;2023-02-05T12:59:05;21.23;;;8.40;;
7989;SDS011;4040;42.848;23.034;2023-02-05T13:01:41;18.97;;;8.97;;
7989;SDS011;4040;42.848;23.034;2023-02-05T13:04:15;14.07;;;7.67;;
7989;SDS011;4040;42.848;23.034;2023-02-05T13:06:47;16.03;;;7.63;;
7989;SDS011;4040;42.848;23.034;2023-02-05T13:09:22;21.83;;;8.37;;
7989;SDS011;4040;42.848;23.034;2023-02-05T13:11:55;21.97;;;8.43;;
7989;SDS011;4040;42.848;23.034;2023-02-05T13:14:27;8.47;;;3.93;;
7989;SDS011;4040;42.848;23.034;2023-02-05T13:17:00;16.13;;;8.43;;
7989;SDS011;4040;42.848;23.034;2023-02-05T13:19:32;12.80;;;7.17;;
7989;SDS011;4040;42.848;23.034;2023-02-05T13:22:09;4.43;;;3.73;;
7989;SDS011;4040;42.848;23.034;2023-02-05T13:25:00;6.37;;;4.03;;
7989;SDS011;4040;42.848;23.034;2023-02-05T13:27:49;15.70;;;8.20;;
7989;SDS011;4040;42.848;23.034;2023-02-05T13:30:44;16.23;;;8.87;;
7989;SDS011;4040;42.848;23.034;2023-02-05T13:33:17;21.43;;;7.30;;
7989;SDS011;4040;42.848;23.034;2023-02-05T13:35:46;24.57;;;9.13;;
7989;SDS011;4040;42.848;23.034;2023-02-05T13:38:33;12.00;;;5.67;;
7989;SDS011;4040;42.848;23.034;2023-02-05T13:41:22;8.33;;;5.60;;
7989;SDS011;4040;42.848;23.034;2023-02-05T13:44:14;22.40;;;11.27;;
7989;SDS011;4040;42.848;23.034;2023-02-05T13:55:54;8.90;;;4.90;;
7989;SDS011;4040;42.848;23.034;2023-02-05T13:58:42;8.57;;;5.17;;
7989;SDS011;4040;42.848;23.034;2023-02-05T14:01:16;9.13;;;4.67;;
7989;SDS011;4040;42.848;23.034;2023-02-05T14:03:54;7.43;;;4.40;;
7989;SDS011;4040;42.848;23.034;2023-02-05T14:06:26;9.03;;;4.20;;
7989;SDS011;4040;42.848;23.034;2023-02-05T14:08:57;5.17;;;3.33;;
7989;SDS011;4040;42.848;23.034;2023-02-05T14:11:28;13.97;;;4.63;;
7989;SDS011;4040;42.848;23.034;2023-02-05T14:14:18;2.97;;;2.67;;
7989;SDS011;4040;42.848;23.034;2023-02-05T14:16:47;10.50;;;4.67;;
7989;SDS011;4040;42.848;23.034;2023-02-05T14:19:16;10.20;;;5.07;;
7989;SDS011;4040;42.848;23.034;2023-02-05T14:21:47;9.90;;;4.13;;
7989;SDS011;4040;42.848;23.034;2023-02-05T14:27:19;6.87;;;4.13;;
7989;SDS011;4040;42.848;23.034;2023-02-05T14:33:04;9.00;;;4.43;;
7989;SDS011;4040;42.848;23.034;2023-02-05T14:35:46;5.37;;;3.07;;
7989;SDS011;4040;42.848;23.034;2023-02-05T14:38:15;5.87;;;4.70;;
7989;SDS011;4040;42.848;23.034;2023-02-05T14:40:58;10.80;;;6.30;;
7989;SDS011;4040;42.848;23.034;2023-02-05T14:43:29;4.83;;;3.00;;
7989;SDS011;4040;42.848;23.034;2023-02-05T14:46:01;3.80;;;2.73;;
7989;SDS011;4040;42.848;23.034;2023-02-05T14:48:31;2.90;;;2.60;;
7989;SDS011;4040;42.848;23.034;2023-02-05T14:51:03;4.67;;;3.10;;
7989;SDS011;4040;42.848;23.034;2023-02-05T14:53:33;8.27;;;4.43;;
7989;SDS011;4040;42.848;23.034;2023-02-05T14:56:03;8.17;;;4.30;;
7989;SDS011;4040;42.848;23.034;2023-02-05T14:58:32;7.70;;;4.67;;
7989;SDS011;4040;42.848;23.034;2023-02-05T15:04:12;8.63;;;5.60;;
7989;SDS011;4040;42.848;23.034;2023-02-05T15:06:49;6.80;;;4.37;;
7989;SDS011;4040;42.848;23.034;2023-02-05T15:09:18;9.13;;;4.87;;
7989;SDS011;4040;42.848;23.034;2023-02-05T15:11:53;7.93;;;3.83;;
7989;SDS011;4040;42.848;23.034;2023-02-05T15:14:36;8.37;;;4.80;;
7989;SDS011;4040;42.848;23.034;2023-02-05T15:20:17;12.60;;;7.47;;
7989;SDS011;4040;42.848;23.034;2023-02-05T15:22:52;21.07;;;8.60;;
7989;SDS011;4040;42.848;23.034;2023-02-05T15:25:26;10.77;;;6.37;;
7989;SDS011;4040;42.848;23.034;2023-02-05T15:28:00;12.80;;;6.80;;
7989;SDS011;4040;42.848;23.034;2023-02-05T15:30:38;7.20;;;3.80;;
7989;SDS011;4040;42.848;23.034;2023-02-05T15:33:14;8.63;;;4.80;;
7989;SDS011;4040;42.848;23.034;2023-02-05T15:35:55;6.10;;;4.37;;
7989;SDS011;4040;42.848;23.034;2023-02-05T15:38:30;12.63;;;6.43;;
7989;SDS011;4040;42.848;23.034;2023-02-05T15:41:03;12.17;;;6.07;;
7989;SDS011;4040;42.848;23.034;2023-02-05T15:43:32;12.70;;;6.70;;
7989;SDS011;4040;42.848;23.034;2023-02-05T15:46:00;10.27;;;5.27;;
7989;SDS011;4040;42.848;23.034;2023-02-05T15:48:30;11.50;;;5.20;;
7989;SDS011;4040;42.848;23.034;2023-02-05T15:51:01;10.17;;;5.10;;